createdAt,value
2022-11-06T00:00:42.565Z,3.56
2022-11-06T00:01:43.075Z,3.53
2022-11-06T00:02:43.032Z,3.49
2022-11-06T00:03:42.494Z,3.48
2022-11-06T00:04:42.769Z,3.48
2022-11-06T00:05:42.450Z,3.51
2022-11-06T00:06:42.178Z,3.48
2022-11-06T00:07:42.677Z,3.57
2022-11-06T00:08:42.142Z,3.51
2022-11-06T00:09:42.660Z,3.6
2022-11-06T00:10:42.120Z,3.78
2022-11-06T00:11:42.358Z,3.71
2022-11-06T00:12:42.342Z,3.64
2022-11-06T00:13:42.354Z,3.81
2022-11-06T00:14:42.301Z,3.76
2022-11-06T00:15:42.537Z,3.81
2022-11-06T00:16:42.264Z,3.79
2022-11-06T00:17:42.293Z,3.76
2022-11-06T00:18:42.490Z,3.81
2022-11-06T00:19:41.968Z,3.74
2022-11-06T00:20:42.219Z,3.72
2022-11-06T00:21:42.438Z,3.79
2022-11-06T00:22:43.317Z,3.79
2022-11-06T00:23:43.034Z,3.79
2022-11-06T00:24:43.261Z,3.81
2022-11-06T00:25:43.263Z,3.78
2022-11-06T00:26:42.981Z,3.89
2022-11-06T00:27:42.706Z,3.86
2022-11-06T00:28:43.196Z,3.86
2022-11-06T00:29:43.184Z,3.89
2022-11-06T00:30:42.919Z,3.9
2022-11-06T00:31:42.905Z,3.89
2022-11-06T00:32:43.126Z,3.96
2022-11-06T00:33:43.399Z,3.93
2022-11-06T00:34:43.100Z,3.92
2022-11-06T00:35:43.075Z,4.11
2022-11-06T00:36:43.088Z,4.07
2022-11-06T00:37:42.538Z,4.07
2022-11-06T00:38:42.773Z,4.07
2022-11-06T00:39:42.878Z,4.1
2022-11-06T00:40:42.747Z,4.11
2022-11-06T00:41:42.733Z,4.1
2022-11-06T00:42:42.961Z,4.08
2022-11-06T00:43:42.440Z,4.17
2022-11-06T00:44:42.688Z,4.1
2022-11-06T00:45:42.667Z,4.07
2022-11-06T00:46:42.894Z,3.92
2022-11-06T00:47:42.364Z,4.02
2022-11-06T00:48:42.862Z,4.04
2022-11-06T00:49:42.903Z,3.94
2022-11-06T00:50:42.826Z,3.93
2022-11-06T00:51:42.809Z,3.89
2022-11-06T00:52:42.809Z,3.93
2022-11-06T00:53:42.785Z,3.92
2022-11-06T00:54:42.505Z,3.94
2022-11-06T00:55:42.488Z,3.84
2022-11-06T00:56:42.211Z,3.85
2022-11-06T00:57:42.702Z,3.85
2022-11-06T00:58:42.438Z,3.85
2022-11-06T00:59:42.438Z,3.75
2022-11-06T01:00:42.417Z,3.78
2022-11-06T01:01:42.636Z,3.67
2022-11-06T01:02:42.954Z,3.64
2022-11-06T01:03:42.619Z,3.67
2022-11-06T01:04:42.387Z,3.66
2022-11-06T01:05:42.738Z,3.72
2022-11-06T01:06:42.309Z,3.66
2022-11-06T01:07:42.300Z,3.6
2022-11-06T01:08:42.304Z,3.69
2022-11-06T01:09:42.008Z,3.64
2022-11-06T01:10:41.986Z,3.61
2022-11-06T01:12:16.363Z,3.56
2022-11-06T01:12:42.214Z,3.64
2022-11-06T01:13:42.449Z,3.64
2022-11-06T01:14:42.180Z,3.6
2022-11-06T01:15:42.157Z,3.56
2022-11-06T01:16:42.141Z,3.51
2022-11-06T01:17:42.122Z,3.56
2022-11-06T01:18:42.367Z,3.49
2022-11-06T01:19:42.369Z,3.51
2022-11-06T01:20:42.336Z,3.51
2022-11-06T01:21:42.368Z,3.51
2022-11-06T01:22:42.296Z,3.49
2022-11-06T01:23:42.021Z,3.51
2022-11-06T01:24:42.442Z,3.46
2022-11-06T01:25:41.992Z,3.46
2022-11-06T01:27:47.989Z,3.35
2022-11-06T01:28:48.225Z,3.3
2022-11-06T01:29:48.214Z,3.3
2022-11-06T01:30:48.449Z,3.2
2022-11-06T01:31:48.432Z,3.27
2022-11-06T01:32:48.155Z,3.27
2022-11-06T01:34:48.156Z,3.3
2022-11-06T01:35:48.362Z,3.32
2022-11-06T01:36:48.392Z,3.24
2022-11-06T01:37:48.069Z,3.24
2022-11-06T01:38:47.803Z,3.21
2022-11-06T01:39:48.321Z,3.23
2022-11-06T01:40:48.283Z,3.19
2022-11-06T01:41:48.033Z,3.23
2022-11-06T01:42:48.053Z,3.21
2022-11-06T01:43:47.974Z,3.21
2022-11-06T01:44:48.295Z,3.19
2022-11-06T01:45:47.958Z,3.19
2022-11-06T01:46:47.925Z,3.21
2022-11-06T01:47:47.642Z,3.2
2022-11-06T01:48:48.137Z,3.2
2022-11-06T01:49:48.119Z,3.24
2022-11-06T01:50:48.100Z,3.27
2022-11-06T01:51:47.830Z,3.21
2022-11-06T01:52:48.098Z,3.2
2022-11-06T01:53:47.794Z,3.2
2022-11-06T01:54:48.032Z,3.23
2022-11-06T01:55:47.786Z,3.17
2022-11-06T01:56:47.740Z,3.23
2022-11-06T01:57:47.466Z,3.29
2022-11-06T01:58:47.709Z,3.27
2022-11-06T01:59:47.697Z,3.23
2022-11-06T02:00:47.810Z,3.24
2022-11-06T02:01:48.098Z,3.21
2022-11-06T02:02:48.639Z,3.2
2022-11-06T02:03:47.620Z,3.21
2022-11-06T02:04:47.605Z,3.21
2022-11-06T02:05:47.334Z,3.3
2022-11-06T02:06:47.567Z,3.34
2022-11-06T02:07:47.542Z,3.34
2022-11-06T02:08:48.499Z,3.37
2022-11-06T02:09:47.765Z,3.45
2022-11-06T02:10:47.497Z,3.46
2022-11-06T02:11:47.754Z,3.42
2022-11-06T02:12:47.713Z,3.39
2022-11-06T02:13:47.700Z,3.17
2022-11-06T02:14:47.679Z,3.21
2022-11-06T02:15:47.664Z,3.26
2022-11-06T02:16:47.643Z,3.26
2022-11-06T02:17:47.366Z,3.17
2022-11-06T02:18:47.364Z,3.21
2022-11-06T02:19:47.338Z,3.23
2022-11-06T02:20:47.578Z,3.2
2022-11-06T02:21:47.306Z,3.19
2022-11-06T02:22:47.541Z,3.17
2022-11-06T02:23:47.329Z,3.21
2022-11-06T02:24:47.555Z,3.23
2022-11-06T02:25:47.232Z,3.21
2022-11-06T02:26:47.473Z,3.21
2022-11-06T02:27:47.475Z,3.26
2022-11-06T02:28:47.179Z,3.2
2022-11-06T02:29:46.906Z,3.2
2022-11-06T02:30:47.400Z,3.19
2022-11-06T02:31:47.126Z,3.17
2022-11-06T02:32:47.113Z,3.19
2022-11-06T02:33:46.838Z,3.16
2022-11-06T02:34:47.337Z,3.17
2022-11-06T02:35:47.048Z,3.21
2022-11-06T02:36:47.038Z,3.23
2022-11-06T02:37:47.276Z,3.19
2022-11-06T02:38:47.260Z,3.27
2022-11-06T02:39:47.250Z,3.14
2022-11-06T02:40:47.277Z,3.19
2022-11-06T02:41:46.955Z,3.21
2022-11-06T02:42:47.187Z,3.3
2022-11-06T02:43:46.940Z,3.35
2022-11-06T02:44:46.902Z,3.35
2022-11-06T02:45:46.886Z,3.42
2022-11-06T02:46:46.862Z,3.43
2022-11-06T02:47:47.100Z,3.42
2022-11-06T02:48:47.084Z,3.46
2022-11-06T02:49:46.811Z,3.49
2022-11-06T02:50:47.051Z,3.51
2022-11-06T02:51:46.780Z,3.51
2022-11-06T02:52:46.760Z,3.53
2022-11-06T02:53:46.742Z,3.69
2022-11-06T02:54:47.000Z,3.69
2022-11-06T02:55:46.460Z,3.78
2022-11-06T02:56:46.999Z,3.84
2022-11-06T02:57:46.418Z,3.94
2022-11-06T02:58:53.431Z,3.96
2022-11-06T02:59:46.667Z,4.08
2022-11-06T03:00:46.877Z,4.11
2022-11-06T03:01:46.989Z,4.18
2022-11-06T03:02:47.414Z,4.2
2022-11-06T03:03:46.599Z,4.15
2022-11-06T03:04:46.558Z,4.22
2022-11-06T03:05:46.532Z,4.2
2022-11-06T03:06:46.517Z,4.18
2022-11-06T03:07:46.754Z,4.21
2022-11-06T03:08:46.734Z,4.18
2022-11-06T03:09:46.228Z,4.15
2022-11-06T03:10:46.712Z,4.17
2022-11-06T03:11:46.178Z,4.22
2022-11-06T03:12:46.463Z,4.28
2022-11-06T03:13:46.142Z,4.28
2022-11-06T03:14:46.378Z,4.17
2022-11-06T03:15:46.643Z,4.21
2022-11-06T03:16:46.599Z,4.26
2022-11-06T03:17:46.631Z,4.21
2022-11-06T03:18:46.306Z,4.17
2022-11-06T03:19:46.295Z,4.28
2022-11-06T03:20:46.533Z,4.26
2022-11-06T03:21:46.516Z,4.24
2022-11-06T03:22:46.503Z,4.3
2022-11-06T03:23:46.222Z,4.21
2022-11-06T03:24:46.467Z,4.32
2022-11-06T03:25:46.448Z,4.15
2022-11-06T03:26:46.433Z,4.29
2022-11-06T03:27:46.412Z,4.12
2022-11-06T03:28:46.440Z,4.21
2022-11-06T03:29:46.121Z,4.12
2022-11-06T03:30:46.112Z,4.26
2022-11-06T03:31:46.368Z,4.17
2022-11-06T03:49:47.715Z,3.79
2022-11-06T03:50:47.484Z,3.76
2022-11-06T03:51:47.481Z,3.84
2022-11-06T03:52:47.978Z,3.67
2022-11-06T03:53:47.169Z,3.64
2022-11-06T03:54:47.413Z,3.71
2022-11-06T03:55:46.876Z,3.66
2022-11-06T03:56:47.118Z,3.6
2022-11-06T03:57:47.362Z,3.66
2022-11-06T03:58:47.291Z,3.63
2022-11-06T03:59:47.324Z,3.66
2022-11-06T04:00:47.037Z,3.75
2022-11-06T04:01:47.342Z,3.75
2022-11-06T04:02:47.460Z,3.67
2022-11-06T04:03:47.245Z,3.67
2022-11-06T04:04:46.971Z,3.84
2022-11-06T04:05:47.280Z,3.81
2022-11-06T04:06:47.190Z,3.85
2022-11-06T04:07:46.913Z,3.86
2022-11-06T04:08:46.643Z,3.97
2022-11-06T04:09:46.882Z,3.9
2022-11-06T04:10:47.129Z,3.86
2022-11-06T04:11:47.098Z,3.85
2022-11-06T04:12:46.831Z,3.97
2022-11-06T04:13:46.551Z,3.81
2022-11-06T04:14:47.143Z,3.96
2022-11-06T04:15:46.775Z,3.86
2022-11-06T04:16:47.015Z,3.97
2022-11-06T04:17:46.750Z,3.84
2022-11-06T04:18:46.726Z,3.92
2022-11-06T04:19:46.451Z,3.92
2022-11-06T04:20:46.440Z,3.84
2022-11-06T04:21:47.120Z,3.86
2022-11-06T04:22:46.653Z,3.93
2022-11-06T04:23:46.888Z,3.9
2022-11-06T04:24:46.874Z,3.92
2022-11-06T04:25:46.349Z,3.85
2022-11-06T04:26:46.841Z,3.9
2022-11-06T04:27:46.575Z,3.92
2022-11-06T04:28:46.550Z,3.82
2022-11-06T04:29:46.533Z,3.93
2022-11-06T04:30:46.776Z,3.85
2022-11-06T04:31:46.243Z,3.85
2022-11-06T04:32:46.735Z,3.79
2022-11-06T04:33:46.464Z,3.82
2022-11-06T04:34:46.703Z,3.79
2022-11-06T04:35:46.687Z,3.76
2022-11-06T04:36:46.410Z,3.82
2022-11-06T04:37:46.721Z,3.67
2022-11-06T04:38:46.381Z,3.69
2022-11-06T04:39:46.104Z,3.74
2022-11-06T04:40:46.597Z,3.6
2022-11-06T04:41:46.334Z,3.53
2022-11-06T04:42:46.580Z,3.57
2022-11-06T04:43:46.041Z,3.57
2022-11-06T04:44:46.270Z,3.45
2022-11-06T04:45:46.258Z,3.37
2022-11-06T04:46:46.245Z,3.45
2022-11-06T04:47:46.222Z,3.48
2022-11-06T04:48:46.456Z,3.39
2022-11-06T04:49:46.190Z,3.34
2022-11-06T04:50:46.449Z,3.34
2022-11-06T04:51:46.414Z,3.19
2022-11-06T04:52:45.875Z,3.24
2022-11-06T04:53:46.636Z,3.17
2022-11-06T04:54:46.352Z,3.21
2022-11-06T04:55:46.336Z,3.2
2022-11-06T04:56:50.806Z,3.23
2022-11-06T04:57:46.298Z,3.16
2022-11-06T04:58:46.056Z,3.16
2022-11-06T04:59:46.013Z,3.11
2022-11-06T05:00:46.214Z,3.2
2022-11-06T05:01:46.846Z,3.09
2022-11-06T05:02:45.961Z,3.19
2022-11-06T05:03:45.960Z,3.09
2022-11-06T05:04:45.672Z,3.05
2022-11-06T05:05:46.165Z,3.05
2022-11-06T05:06:45.886Z,2.91
2022-11-06T05:07:46.126Z,2.98
2022-11-06T05:08:46.120Z,2.9
2022-11-06T05:09:46.254Z,2.9
2022-11-06T05:10:45.815Z,2.85
2022-11-06T05:11:45.804Z,3.01
2022-11-06T05:12:46.045Z,2.99
2022-11-06T05:13:46.042Z,2.87
2022-11-06T05:14:45.498Z,2.8
2022-11-06T05:15:45.731Z,2.93
2022-11-06T05:16:45.974Z,2.85
2022-11-06T05:17:45.780Z,2.81
2022-11-06T05:18:45.679Z,2.83
2022-11-06T05:19:45.926Z,2.9
2022-11-06T05:20:45.649Z,2.9
2022-11-06T05:21:45.888Z,2.83
2022-11-06T05:22:45.607Z,2.85
2022-11-06T05:23:46.099Z,2.88
2022-11-06T05:24:45.837Z,2.85
2022-11-06T05:25:45.883Z,2.83
2022-11-06T05:26:45.793Z,2.73
2022-11-06T05:27:45.528Z,2.78
2022-11-06T05:28:45.755Z,2.81
2022-11-06T05:29:45.232Z,2.83
2022-11-06T05:30:45.466Z,2.84
2022-11-06T05:31:45.449Z,2.78
2022-11-06T05:32:45.428Z,2.8
2022-11-06T05:33:45.156Z,2.84
2022-11-06T05:34:45.648Z,2.83
2022-11-06T05:35:45.382Z,2.81
2022-11-06T05:36:45.361Z,2.83
2022-11-06T05:37:45.347Z,2.83
2022-11-06T05:38:45.332Z,2.83
2022-11-06T05:39:47.026Z,2.84
2022-11-06T05:40:45.544Z,2.81
2022-11-06T05:41:45.848Z,2.83
2022-11-06T05:42:44.994Z,2.88
2022-11-06T05:43:45.233Z,2.95
2022-11-06T05:44:45.474Z,2.9
2022-11-06T05:45:45.460Z,2.9
2022-11-06T05:46:53.763Z,3.01
2022-11-06T05:47:45.168Z,2.95
2022-11-06T05:48:45.402Z,2.95
2022-11-06T05:49:45.132Z,2.88
2022-11-06T05:50:44.857Z,2.95
2022-11-06T05:51:45.093Z,2.81
2022-11-06T05:52:45.333Z,2.85
2022-11-06T05:53:45.312Z,2.87
2022-11-06T05:54:45.297Z,2.76
2022-11-06T05:55:45.278Z,2.73
2022-11-06T05:56:45.011Z,2.72
2022-11-06T05:57:45.324Z,2.77
2022-11-06T05:58:44.719Z,2.76
2022-11-06T05:59:44.958Z,2.69
2022-11-06T06:00:44.934Z,2.65
2022-11-06T06:01:45.420Z,2.65
2022-11-06T06:02:45.629Z,2.6
2022-11-06T06:03:44.882Z,2.66
2022-11-06T06:04:45.122Z,2.55
2022-11-06T06:05:44.846Z,2.55
2022-11-06T06:06:44.830Z,2.62
2022-11-06T06:07:45.063Z,2.58
2022-11-06T06:08:44.795Z,2.62
2022-11-06T06:09:45.029Z,2.55
2022-11-06T06:10:44.765Z,2.52
2022-11-06T06:11:44.999Z,2.59
2022-11-06T06:12:44.727Z,2.59
2022-11-06T06:13:45.157Z,2.54
2022-11-06T06:14:50.489Z,2.55
2022-11-06T06:15:44.927Z,2.72
2022-11-06T06:16:44.648Z,2.67
2022-11-06T06:17:44.638Z,2.7
2022-11-06T06:18:44.870Z,2.69
2022-11-06T06:19:44.603Z,2.76
2022-11-06T06:20:44.577Z,2.62
2022-11-06T06:21:44.570Z,2.67
2022-11-06T06:22:44.541Z,2.73
2022-11-06T06:23:44.789Z,2.81
2022-11-06T06:24:44.812Z,2.8
2022-11-06T06:25:44.490Z,2.83
2022-11-06T06:26:44.476Z,2.81
2022-11-06T06:27:44.195Z,2.8
2022-11-06T06:28:44.178Z,2.83
2022-11-06T06:29:44.864Z,2.78
2022-11-06T06:30:44.153Z,2.81
2022-11-06T06:31:45.459Z,2.83
2022-11-06T06:32:45.189Z,2.83
2022-11-06T06:33:45.427Z,2.88
2022-11-06T06:34:44.889Z,2.78
2022-11-06T06:35:45.402Z,2.87
2022-11-06T06:36:45.115Z,2.85
2022-11-06T06:37:44.846Z,2.87
2022-11-06T06:38:45.339Z,2.87
2022-11-06T06:39:44.808Z,2.81
2022-11-06T06:40:45.041Z,2.8
2022-11-06T06:41:44.771Z,2.81
2022-11-06T06:42:45.007Z,2.78
2022-11-06T06:43:45.245Z,2.77
2022-11-06T06:44:44.974Z,2.72
2022-11-06T06:45:45.336Z,2.8
2022-11-06T06:46:44.939Z,2.73
2022-11-06T06:47:44.661Z,2.73
2022-11-06T06:48:45.158Z,2.76
2022-11-06T06:49:45.143Z,2.69
2022-11-06T06:50:44.863Z,2.81
2022-11-06T06:51:44.848Z,2.69
2022-11-06T06:52:44.828Z,2.66
2022-11-06T06:53:45.069Z,2.77
2022-11-06T06:54:45.049Z,2.77
2022-11-06T06:55:45.033Z,2.67
2022-11-06T06:56:44.767Z,2.66
2022-11-06T06:57:44.747Z,2.69
2022-11-06T06:58:44.978Z,2.69
2022-11-06T06:59:44.963Z,2.66
2022-11-06T07:00:44.926Z,2.72
2022-11-06T07:01:45.523Z,2.78
2022-11-06T07:02:44.662Z,2.78
2022-11-06T07:03:44.639Z,2.83
2022-11-06T07:04:44.627Z,2.84
2022-11-06T07:05:45.008Z,2.84
2022-11-06T07:06:44.339Z,2.88
2022-11-06T07:07:44.564Z,2.99
2022-11-06T07:08:44.565Z,2.93
2022-11-06T07:09:44.788Z,2.95
2022-11-06T07:10:44.512Z,3.02
2022-11-06T07:11:44.758Z,2.98
2022-11-06T07:12:44.479Z,3.05
2022-11-06T07:13:44.197Z,3.06
2022-11-06T07:14:44.693Z,3.09
2022-11-06T07:15:44.537Z,3.11
2022-11-06T07:16:45.026Z,3.09
2022-11-06T07:17:44.901Z,3.11
2022-11-06T07:18:44.383Z,3.16
2022-11-06T07:19:44.612Z,3.23
2022-11-06T07:20:44.342Z,3.21
2022-11-06T07:21:44.319Z,3.26
2022-11-06T07:22:44.297Z,3.21
2022-11-06T07:23:44.292Z,3.24
2022-11-06T07:24:44.515Z,3.21
2022-11-06T07:25:44.249Z,3.2
2022-11-06T07:26:44.231Z,3.29
2022-11-06T07:27:44.469Z,3.32
2022-11-06T07:28:44.451Z,3.24
2022-11-06T07:29:44.430Z,3.21
2022-11-06T07:30:44.418Z,3.2
2022-11-06T07:31:44.178Z,3.19
2022-11-06T07:32:44.124Z,3.24
2022-11-06T07:33:44.433Z,3.26
2022-11-06T07:34:44.088Z,3.29
2022-11-06T07:35:44.067Z,3.3
2022-11-06T07:36:44.308Z,3.35
2022-11-06T07:37:44.033Z,3.4
2022-11-06T07:38:44.330Z,3.42
2022-11-06T07:39:43.997Z,3.39
2022-11-06T07:40:44.386Z,3.49
2022-11-06T07:41:43.966Z,3.46
2022-11-06T07:42:47.990Z,3.6
2022-11-06T07:43:44.185Z,3.58
2022-11-06T07:44:43.914Z,3.6
2022-11-06T07:45:44.151Z,3.78
2022-11-06T07:46:44.131Z,3.71
2022-11-06T07:47:44.127Z,3.69
2022-11-06T07:48:43.842Z,3.72
2022-11-06T07:49:51.015Z,3.64
2022-11-06T07:50:43.809Z,3.71
2022-11-06T07:51:44.043Z,3.69
2022-11-06T07:52:44.059Z,3.67
2022-11-06T07:53:43.827Z,3.67
2022-11-06T07:54:43.480Z,3.78
2022-11-06T07:55:46.871Z,3.72
2022-11-06T07:56:43.444Z,3.79
2022-11-06T07:57:43.943Z,3.85
2022-11-06T07:58:43.924Z,3.82
2022-11-06T07:59:43.914Z,3.86
2022-11-06T08:00:43.624Z,3.85
2022-11-06T08:01:43.828Z,3.82
2022-11-06T08:02:43.696Z,3.85
2022-11-06T08:03:43.584Z,3.93
2022-11-06T08:04:43.822Z,3.97
2022-11-06T08:05:43.960Z,4.03
2022-11-06T08:06:43.535Z,3.92
2022-11-06T08:07:43.771Z,4.02
2022-11-06T08:08:43.504Z,3.92
2022-11-06T08:09:43.488Z,3.99
2022-11-06T08:10:43.465Z,4.12
2022-11-06T08:11:43.449Z,4.03
2022-11-06T08:12:43.169Z,4.07
2022-11-06T08:13:43.412Z,4.07
2022-11-06T08:14:45.915Z,4.14
2022-11-06T08:15:43.390Z,4.08
2022-11-06T08:16:43.612Z,4.11
2022-11-06T08:17:43.348Z,4.14
2022-11-06T08:18:43.324Z,4.2
2022-11-06T08:19:43.315Z,4.15
2022-11-06T08:20:43.297Z,4.14
2022-11-06T08:21:43.614Z,4.15
2022-11-06T08:22:43.517Z,4.24
2022-11-06T08:23:43.246Z,4.33
2022-11-06T08:24:42.963Z,4.26
2022-11-06T08:25:43.209Z,4.39
2022-11-06T08:26:43.189Z,4.36
2022-11-06T08:27:43.425Z,4.42
2022-11-06T08:28:43.413Z,4.47
2022-11-06T08:29:46.173Z,4.48
2022-11-06T08:30:43.385Z,4.5
2022-11-06T08:31:43.174Z,4.5
2022-11-06T08:32:42.833Z,4.53
2022-11-06T08:33:43.084Z,4.5
2022-11-06T08:34:43.315Z,4.6
2022-11-06T08:35:43.315Z,4.61
2022-11-06T08:36:45.573Z,4.57
2022-11-06T08:37:43.465Z,4.6
2022-11-06T08:38:42.778Z,4.71
2022-11-06T08:39:42.973Z,4.65
2022-11-06T08:40:42.963Z,4.72
2022-11-06T08:41:43.197Z,4.64
2022-11-06T08:42:43.179Z,4.68
2022-11-06T08:43:42.647Z,4.84
2022-11-06T08:44:42.880Z,4.71
2022-11-06T08:45:43.266Z,4.78
2022-11-06T08:46:46.462Z,4.79
2022-11-06T08:47:43.089Z,4.88
2022-11-06T08:48:43.078Z,4.88
2022-11-06T08:49:42.811Z,4.97
2022-11-06T08:50:42.529Z,4.91
2022-11-06T08:51:42.517Z,4.94
2022-11-06T08:52:43.007Z,4.92
2022-11-06T08:53:43.486Z,5.12
2022-11-06T08:54:42.722Z,5.08
2022-11-06T08:55:42.699Z,5.09
2022-11-06T08:56:42.688Z,5.12
2022-11-06T08:57:42.928Z,5.15
2022-11-06T08:58:42.912Z,5.24
2022-11-06T08:59:42.638Z,5.18
2022-11-06T09:00:43.106Z,5.15
2022-11-06T09:01:43.076Z,5.15
2022-11-06T09:02:42.737Z,5.16
2022-11-06T09:03:42.827Z,5.2
2022-11-06T09:04:45.988Z,5.21
2022-11-06T09:05:42.795Z,5.3
2022-11-06T09:06:42.524Z,5.23
2022-11-06T09:07:42.512Z,5.23
2022-11-06T09:08:42.492Z,5.28
2022-11-06T09:09:42.917Z,5.23
2022-11-06T09:10:42.467Z,5.34
2022-11-06T09:11:42.444Z,5.36
2022-11-06T09:12:42.433Z,5.37
2022-11-06T09:13:42.222Z,5.39
2022-11-06T09:14:42.656Z,5.39
2022-11-06T09:15:42.123Z,5.49
2022-11-06T09:16:42.611Z,5.39
2022-11-06T09:17:42.086Z,5.54
2022-11-06T09:18:42.337Z,5.57
2022-11-06T09:19:42.337Z,5.62
2022-11-06T09:20:42.548Z,5.55
2022-11-06T09:21:42.534Z,5.63
2022-11-06T09:22:42.522Z,5.6
2022-11-06T09:23:41.991Z,5.59
2022-11-06T09:25:07.301Z,5.57
2022-11-06T09:25:42.491Z,5.64
2022-11-06T09:26:42.198Z,5.63
2022-11-06T09:27:42.435Z,5.63
2022-11-06T09:28:42.430Z,5.72
2022-11-06T09:29:42.403Z,5.72
2022-11-06T09:30:42.402Z,5.78
2022-11-06T09:31:42.384Z,5.77
2022-11-06T09:32:42.360Z,5.85
2022-11-06T09:33:42.089Z,5.81
2022-11-06T09:34:42.327Z,5.81
2022-11-06T09:35:42.311Z,5.77
2022-11-06T09:36:42.290Z,5.87
2022-11-06T09:37:42.279Z,5.78
2022-11-06T09:38:42.256Z,5.82
2022-11-06T09:39:41.983Z,5.87
2022-11-06T09:40:42.027Z,5.78
2022-11-06T09:41:41.977Z,5.81
2022-11-06T09:42:41.939Z,5.8
2022-11-06T09:44:12.219Z,5.8
2022-11-06T09:44:41.913Z,5.88
2022-11-06T09:45:42.154Z,5.91
2022-11-06T09:46:41.885Z,5.87
2022-11-06T09:47:41.853Z,5.87
2022-11-06T09:48:41.841Z,5.92
2022-11-06T09:49:42.088Z,5.85
2022-11-06T09:50:41.813Z,5.91
2022-11-06T09:51:42.569Z,6.05
2022-11-06T09:52:41.931Z,6.02
2022-11-06T09:53:41.867Z,5.98
2022-11-06T09:54:42.087Z,6.02
2022-11-06T09:55:42.747Z,6.13
2022-11-06T09:56:41.765Z,6.14
2022-11-06T09:57:41.825Z,6.07
2022-11-06T09:58:41.941Z,6.18
2022-11-06T09:59:41.932Z,6.24
2022-11-06T10:00:41.965Z,6.17
2022-11-06T10:01:41.849Z,6.26
2022-11-06T10:02:41.912Z,6.34
2022-11-06T10:03:41.350Z,6.39
2022-11-06T10:04:41.841Z,6.42
2022-11-06T10:05:41.833Z,6.37
2022-11-06T10:06:41.297Z,6.51
2022-11-06T10:07:41.802Z,6.44
2022-11-06T10:08:41.524Z,6.51
2022-11-06T10:09:41.770Z,6.52
2022-11-06T10:10:41.237Z,6.64
2022-11-06T10:11:41.739Z,6.62
2022-11-06T10:12:41.853Z,6.75
2022-11-06T10:13:41.733Z,6.8
2022-11-06T10:14:41.729Z,6.94
2022-11-06T10:15:41.165Z,6.9
2022-11-06T10:16:41.402Z,7.05
2022-11-06T10:17:41.648Z,7.15
2022-11-06T10:18:41.371Z,7.27
2022-11-06T10:19:41.354Z,7.34
2022-11-06T10:20:41.598Z,7.37
2022-11-06T10:21:41.328Z,7.54
2022-11-06T10:22:41.312Z,7.54
2022-11-06T10:23:41.552Z,7.51
2022-11-06T10:24:41.278Z,7.47
2022-11-06T10:25:41.527Z,7.52
2022-11-06T10:26:41.506Z,7.59
2022-11-06T10:27:41.238Z,7.67
2022-11-06T10:28:41.531Z,7.64
2022-11-06T10:29:41.482Z,7.77
2022-11-06T10:30:41.450Z,7.63
2022-11-06T10:31:41.173Z,7.74
2022-11-06T10:32:40.920Z,7.7
2022-11-06T10:33:41.146Z,7.67
2022-11-06T10:34:41.385Z,7.71
2022-11-06T10:35:41.120Z,7.73
2022-11-06T10:36:40.840Z,7.74
2022-11-06T10:37:40.829Z,7.8
2022-11-06T10:38:41.068Z,7.78
2022-11-06T10:39:41.052Z,7.93
2022-11-06T10:40:41.046Z,8.03
2022-11-06T10:41:41.031Z,8.1
2022-11-06T10:42:43.165Z,8.1
2022-11-06T10:43:41.001Z,8.22
2022-11-06T10:44:41.393Z,8.13
2022-11-06T10:45:41.006Z,8.14
2022-11-06T10:46:40.697Z,8.17
2022-11-06T10:47:41.196Z,8.29
2022-11-06T10:48:45.908Z,8.19
2022-11-06T10:49:40.909Z,8.19
2022-11-06T10:50:40.900Z,8.28
2022-11-06T10:51:40.881Z,8.25
2022-11-06T10:52:40.862Z,8.39
2022-11-06T10:53:40.857Z,8.34
2022-11-06T10:54:40.834Z,8.42
2022-11-06T10:55:40.824Z,8.44
2022-11-06T10:56:41.064Z,8.39
2022-11-06T10:57:40.790Z,8.47
2022-11-06T10:58:40.792Z,8.4
2022-11-06T10:59:41.027Z,8.36
2022-11-06T11:00:41.036Z,8.39
2022-11-06T11:01:41.535Z,8.46
2022-11-06T11:02:41.109Z,8.29
2022-11-06T11:03:40.706Z,8.4
2022-11-06T11:04:40.991Z,8.31
2022-11-06T11:05:40.931Z,8.47
2022-11-06T11:06:40.662Z,8.47
2022-11-06T11:07:40.650Z,8.44
2022-11-06T11:08:40.893Z,8.46
2022-11-06T11:09:40.883Z,8.47
2022-11-06T11:10:40.626Z,8.49
2022-11-06T11:11:40.847Z,8.4
2022-11-06T11:12:40.836Z,8.46
2022-11-06T11:13:40.563Z,8.49
2022-11-06T11:14:40.801Z,8.58
2022-11-06T11:15:40.532Z,8.54
2022-11-06T11:16:40.820Z,8.5
2022-11-06T11:17:40.529Z,8.58
2022-11-06T11:18:40.761Z,8.62
2022-11-06T11:19:40.496Z,8.62
2022-11-06T11:20:40.717Z,8.69
2022-11-06T11:21:40.448Z,8.68
2022-11-06T11:22:40.756Z,8.72
2022-11-06T11:23:40.649Z,8.71
2022-11-06T11:24:40.898Z,8.69
2022-11-06T11:25:40.624Z,8.65
2022-11-06T11:26:40.875Z,8.68
2022-11-06T11:27:40.846Z,8.69
2022-11-06T11:28:40.582Z,8.65
2022-11-06T11:29:40.834Z,8.61
2022-11-06T11:30:40.293Z,8.61
2022-11-06T11:31:40.535Z,8.54
2022-11-06T11:32:40.837Z,8.62
2022-11-06T11:33:40.885Z,8.53
2022-11-06T11:34:43.455Z,8.44
2022-11-06T11:35:40.733Z,8.49
2022-11-06T11:36:40.466Z,8.54
2022-11-06T11:37:40.713Z,8.52
2022-11-06T11:38:40.200Z,8.49
2022-11-06T11:39:40.193Z,8.44
2022-11-06T11:40:40.769Z,8.47
2022-11-06T11:41:40.408Z,8.52
2022-11-06T11:42:40.377Z,8.46
2022-11-06T11:43:40.373Z,8.52
2022-11-06T11:44:40.610Z,8.49
2022-11-06T11:45:40.346Z,8.52
2022-11-06T11:46:40.582Z,8.52
2022-11-06T11:47:40.313Z,8.5
2022-11-06T11:48:40.603Z,8.57
2022-11-06T11:49:40.561Z,8.49
2022-11-06T11:50:40.519Z,8.62
2022-11-06T11:51:40.260Z,8.6
2022-11-06T11:52:42.596Z,8.49
2022-11-06T11:53:40.231Z,8.52
2022-11-06T11:54:40.472Z,8.61
2022-11-06T11:55:40.197Z,8.53
2022-11-06T11:57:09.391Z,8.67
2022-11-06T11:57:40.426Z,8.67
2022-11-06T11:58:40.414Z,8.65
2022-11-06T11:59:40.143Z,8.67
2022-11-06T12:00:40.137Z,8.69
2022-11-06T12:01:40.082Z,8.67
2022-11-06T12:02:40.982Z,8.64
2022-11-06T12:03:40.338Z,8.65
2022-11-06T12:04:40.418Z,8.67
2022-11-06T12:05:40.335Z,8.62
2022-11-06T12:06:40.309Z,8.64
2022-11-06T12:07:46.549Z,8.67
2022-11-06T12:08:40.271Z,8.68
2022-11-06T12:09:40.256Z,8.64
2022-11-06T12:10:40.008Z,8.58
2022-11-06T12:11:40.233Z,8.61
2022-11-06T12:12:40.211Z,8.52
2022-11-06T12:13:39.942Z,8.52
2022-11-06T12:14:39.925Z,8.31
2022-11-06T12:15:39.919Z,8.35
2022-11-06T12:16:39.899Z,8.4
2022-11-06T12:17:39.886Z,8.42
2022-11-06T12:18:40.134Z,8.34
2022-11-06T12:19:39.860Z,8.39
2022-11-06T12:20:40.147Z,8.34
2022-11-06T12:21:40.109Z,8.32
2022-11-06T12:22:39.819Z,8.29
2022-11-06T12:23:39.547Z,8.21
2022-11-06T12:24:39.795Z,8.19
2022-11-06T12:25:39.774Z,8.29
2022-11-06T12:26:39.510Z,8.34
2022-11-06T12:27:39.748Z,8.21
2022-11-06T12:28:39.993Z,8.19
2022-11-06T12:29:39.971Z,8.22
2022-11-06T12:30:39.973Z,8.24
2022-11-06T12:31:39.431Z,8.19
2022-11-06T12:32:39.680Z,8.17
2022-11-06T12:34:17.350Z,8.24
2022-11-06T12:34:39.652Z,8.24
2022-11-06T12:35:39.628Z,8.32
2022-11-06T12:36:39.945Z,8.17
2022-11-06T12:37:39.628Z,8.24
2022-11-06T12:38:39.593Z,8.24
2022-11-06T12:39:39.832Z,8.24
2022-11-06T12:40:39.564Z,8.13
2022-11-06T12:41:39.298Z,8.32
2022-11-06T12:42:39.532Z,8.21
2022-11-06T12:43:39.781Z,8.29
2022-11-06T12:44:39.505Z,8.24
2022-11-06T12:45:39.237Z,8.31
2022-11-06T12:46:39.476Z,8.16
2022-11-06T12:47:39.455Z,8.24
2022-11-06T12:48:39.446Z,8.16
2022-11-06T12:49:39.431Z,8.25
2022-11-06T12:50:39.674Z,8.25
2022-11-06T12:51:39.403Z,8.17
2022-11-06T12:52:39.705Z,8.31
2022-11-06T12:53:39.656Z,8.22
2022-11-06T12:54:39.622Z,8.32
2022-11-06T12:55:39.608Z,8.21
2022-11-06T12:56:39.332Z,8.24
2022-11-06T12:57:39.327Z,8.28
2022-11-06T12:58:39.308Z,8.17
2022-11-06T12:59:39.291Z,8.17
2022-11-06T13:00:39.536Z,8.16
2022-11-06T13:01:39.821Z,8.19
2022-11-06T13:02:39.770Z,8.16
2022-11-06T13:03:39.237Z,8.34
2022-11-06T13:04:39.479Z,8.28
2022-11-06T13:05:39.209Z,8.19
2022-11-06T13:06:39.451Z,8.31
2022-11-06T13:07:39.452Z,8.19
2022-11-06T13:08:39.220Z,8.31
2022-11-06T13:09:39.440Z,8.21
2022-11-06T13:10:39.138Z,8.22
2022-11-06T13:11:39.117Z,8.22
2022-11-06T13:12:39.108Z,8.28
2022-11-06T13:13:39.091Z,8.21
2022-11-06T13:14:39.094Z,8.16
2022-11-06T13:15:39.061Z,8.22
2022-11-06T13:16:39.302Z,8.28
2022-11-06T13:17:39.033Z,8.26
2022-11-06T13:18:38.767Z,8.24
2022-11-06T13:19:39.011Z,8.31
2022-11-06T13:20:38.994Z,8.21
2022-11-06T13:21:38.993Z,8.24
2022-11-06T13:22:38.965Z,8.17
2022-11-06T13:23:38.950Z,8.24
2022-11-06T13:24:39.251Z,8.22
2022-11-06T13:25:44.296Z,8.17
2022-11-06T13:26:39.178Z,8.17
2022-11-06T13:27:39.153Z,8.25
2022-11-06T13:28:39.139Z,8.24
2022-11-06T13:29:39.145Z,8.22
2022-11-06T13:30:38.602Z,8.24
2022-11-06T13:31:38.840Z,8.26
2022-11-06T13:32:39.079Z,8.26
2022-11-06T13:33:38.558Z,8.21
2022-11-06T13:34:38.796Z,8.24
2022-11-06T13:35:38.830Z,8.25
2022-11-06T13:36:38.793Z,8.31
2022-11-06T13:37:38.753Z,8.31
2022-11-06T13:38:38.738Z,8.25
2022-11-06T13:39:38.736Z,8.26